sensor_id;sensor_type;location;lat;lon;timestamp;P1;durP1;ratioP1;P2;durP2;ratioP2
13252;SDS011;6693;54.370;10.132;2022-11-12T00:00:08;16.95;;;6.45;;
13252;SDS011;6693;54.370;10.132;2022-11-12T00:01:13;16.52;;;8.73;;
13252;SDS011;6693;54.370;10.132;2022-11-12T00:02:14;14.30;;;5.60;;
13252;SDS011;6693;54.370;10.132;2022-11-12T00:03:17;21.08;;;10.63;;
13252;SDS011;6693;54.370;10.132;2022-11-12T00:04:18;22.27;;;10.70;;
13252;SDS011;6693;54.370;10.132;2022-11-12T00:05:21;17.10;;;5.90;;
13252;SDS011;6693;54.370;10.132;2022-11-12T00:06:21;15.45;;;6.57;;
13252;SDS011;6693;54.370;10.132;2022-11-12T00:07:24;14.65;;;6.70;;
13252;SDS011;6693;54.370;10.132;2022-11-12T00:08:25;18.77;;;7.97;;
13252;SDS011;6693;54.370;10.132;2022-11-12T00:09:28;13.05;;;5.55;;
13252;SDS011;6693;54.370;10.132;2022-11-12T00:10:29;15.88;;;6.47;;
13252;SDS011;6693;54.370;10.132;2022-11-12T00:11:32;13.48;;;5.70;;
13252;SDS011;6693;54.370;10.132;2022-11-12T00:12:33;15.88;;;7.10;;
13252;SDS011;6693;54.370;10.132;2022-11-12T00:13:37;16.48;;;7.20;;
13252;SDS011;6693;54.370;10.132;2022-11-12T00:14:40;17.02;;;8.30;;
13252;SDS011;6693;54.370;10.132;2022-11-12T00:15:44;16.40;;;7.43;;
13252;SDS011;6693;54.370;10.132;2022-11-12T00:17:48;15.82;;;6.60;;
13252;SDS011;6693;54.370;10.132;2022-11-12T00:18:48;18.60;;;7.70;;
13252;SDS011;6693;54.370;10.132;2022-11-12T00:19:51;17.35;;;7.38;;
13252;SDS011;6693;54.370;10.132;2022-11-12T00:20:53;14.88;;;6.88;;
13252;SDS011;6693;54.370;10.132;2022-11-12T00:21:56;17.52;;;7.15;;
13252;SDS011;6693;54.370;10.132;2022-11-12T00:22:56;18.30;;;7.47;;
13252;SDS011;6693;54.370;10.132;2022-11-12T00:24:00;18.45;;;6.55;;
13252;SDS011;6693;54.370;10.132;2022-11-12T00:25:00;16.45;;;7.82;;
13252;SDS011;6693;54.370;10.132;2022-11-12T00:26:04;18.17;;;7.72;;
13252;SDS011;6693;54.370;10.132;2022-11-12T00:27:04;18.33;;;6.95;;
13252;SDS011;6693;54.370;10.132;2022-11-12T00:28:08;17.08;;;7.40;;
13252;SDS011;6693;54.370;10.132;2022-11-12T00:29:09;19.58;;;9.70;;
13252;SDS011;6693;54.370;10.132;2022-11-12T00:30:15;18.98;;;8.07;;
13252;SDS011;6693;54.370;10.132;2022-11-12T00:31:16;17.40;;;7.43;;
13252;SDS011;6693;54.370;10.132;2022-11-12T00:32:19;21.42;;;11.55;;
13252;SDS011;6693;54.370;10.132;2022-11-12T00:33:20;18.42;;;7.97;;
13252;SDS011;6693;54.370;10.132;2022-11-12T00:34:23;19.00;;;8.65;;
13252;SDS011;6693;54.370;10.132;2022-11-12T00:35:23;19.17;;;7.30;;
13252;SDS011;6693;54.370;10.132;2022-11-12T00:36:27;19.17;;;8.57;;
13252;SDS011;6693;54.370;10.132;2022-11-12T00:37:27;17.65;;;6.78;;
13252;SDS011;6693;54.370;10.132;2022-11-12T00:38:30;19.27;;;7.28;;
13252;SDS011;6693;54.370;10.132;2022-11-12T00:39:31;20.67;;;8.90;;
13252;SDS011;6693;54.370;10.132;2022-11-12T00:40:34;20.52;;;8.40;;
13252;SDS011;6693;54.370;10.132;2022-11-12T00:41:35;18.58;;;7.70;;
13252;SDS011;6693;54.370;10.132;2022-11-12T00:42:38;17.67;;;8.27;;
13252;SDS011;6693;54.370;10.132;2022-11-12T00:43:39;17.67;;;7.95;;
13252;SDS011;6693;54.370;10.132;2022-11-12T00:44:42;18.88;;;8.43;;
13252;SDS011;6693;54.370;10.132;2022-11-12T00:45:45;20.98;;;8.55;;
13252;SDS011;6693;54.370;10.132;2022-11-12T00:46:48;19.00;;;8.50;;
13252;SDS011;6693;54.370;10.132;2022-11-12T00:47:49;22.13;;;8.57;;
13252;SDS011;6693;54.370;10.132;2022-11-12T00:48:56;21.30;;;8.70;;
13252;SDS011;6693;54.370;10.132;2022-11-12T00:49:56;22.15;;;9.00;;
13252;SDS011;6693;54.370;10.132;2022-11-12T00:51:00;22.25;;;8.98;;
13252;SDS011;6693;54.370;10.132;2022-11-12T00:53:04;19.25;;;7.65;;
13252;SDS011;6693;54.370;10.132;2022-11-12T00:54:05;19.08;;;8.32;;
13252;SDS011;6693;54.370;10.132;2022-11-12T00:55:08;20.90;;;8.40;;
13252;SDS011;6693;54.370;10.132;2022-11-12T00:56:09;21.17;;;8.13;;
13252;SDS011;6693;54.370;10.132;2022-11-12T00:57:12;21.63;;;8.48;;
13252;SDS011;6693;54.370;10.132;2022-11-12T00:58:13;19.30;;;8.30;;
13252;SDS011;6693;54.370;10.132;2022-11-12T00:59:16;20.88;;;9.02;;
13252;SDS011;6693;54.370;10.132;2022-11-12T01:00:17;18.70;;;7.47;;
13252;SDS011;6693;54.370;10.132;2022-11-12T01:01:25;19.85;;;9.30;;
13252;SDS011;6693;54.370;10.132;2022-11-12T01:02:26;19.58;;;8.75;;
13252;SDS011;6693;54.370;10.132;2022-11-12T01:03:29;20.92;;;8.77;;
13252;SDS011;6693;54.370;10.132;2022-11-12T01:04:30;18.30;;;7.68;;
13252;SDS011;6693;54.370;10.132;2022-11-12T01:05:33;22.50;;;8.63;;
13252;SDS011;6693;54.370;10.132;2022-11-12T01:06:34;25.40;;;8.52;;
13252;SDS011;6693;54.370;10.132;2022-11-12T01:07:40;19.13;;;7.65;;
13252;SDS011;6693;54.370;10.132;2022-11-12T01:08:41;20.08;;;7.78;;
13252;SDS011;6693;54.370;10.132;2022-11-12T01:09:44;21.75;;;9.48;;
13252;SDS011;6693;54.370;10.132;2022-11-12T01:10:45;23.67;;;9.77;;
13252;SDS011;6693;54.370;10.132;2022-11-12T01:11:48;23.25;;;9.32;;
13252;SDS011;6693;54.370;10.132;2022-11-12T01:12:49;25.33;;;9.77;;
13252;SDS011;6693;54.370;10.132;2022-11-12T01:13:53;22.23;;;9.25;;
13252;SDS011;6693;54.370;10.132;2022-11-12T01:14:54;22.65;;;9.48;;
13252;SDS011;6693;54.370;10.132;2022-11-12T01:15:58;20.00;;;9.85;;
13252;SDS011;6693;54.370;10.132;2022-11-12T01:17:01;22.98;;;10.30;;
13252;SDS011;6693;54.370;10.132;2022-11-12T01:18:04;25.00;;;9.88;;
13252;SDS011;6693;54.370;10.132;2022-11-12T01:19:05;23.85;;;10.23;;
13252;SDS011;6693;54.370;10.132;2022-11-12T01:20:10;22.00;;;9.18;;
13252;SDS011;6693;54.370;10.132;2022-11-12T01:21:11;25.80;;;9.73;;
13252;SDS011;6693;54.370;10.132;2022-11-12T01:22:14;22.02;;;9.35;;
13252;SDS011;6693;54.370;10.132;2022-11-12T01:23:15;20.85;;;8.90;;
13252;SDS011;6693;54.370;10.132;2022-11-12T01:24:18;23.02;;;9.98;;
13252;SDS011;6693;54.370;10.132;2022-11-12T01:25:19;26.15;;;11.23;;
13252;SDS011;6693;54.370;10.132;2022-11-12T01:26:22;21.45;;;9.13;;
13252;SDS011;6693;54.370;10.132;2022-11-12T01:27:23;20.98;;;8.10;;
13252;SDS011;6693;54.370;10.132;2022-11-12T01:28:26;22.63;;;9.77;;
13252;SDS011;6693;54.370;10.132;2022-11-12T01:29:28;24.73;;;9.73;;
13252;SDS011;6693;54.370;10.132;2022-11-12T01:30:31;22.90;;;10.15;;
13252;SDS011;6693;54.370;10.132;2022-11-12T01:31:32;23.13;;;9.48;;
13252;SDS011;6693;54.370;10.132;2022-11-12T01:32:39;24.45;;;10.00;;
13252;SDS011;6693;54.370;10.132;2022-11-12T01:33:40;26.45;;;9.68;;
13252;SDS011;6693;54.370;10.132;2022-11-12T01:34:43;22.27;;;9.75;;
13252;SDS011;6693;54.370;10.132;2022-11-12T01:35:44;21.55;;;9.52;;
13252;SDS011;6693;54.370;10.132;2022-11-12T01:36:47;22.77;;;9.48;;
13252;SDS011;6693;54.370;10.132;2022-11-12T01:37:48;24.60;;;11.07;;
13252;SDS011;6693;54.370;10.132;2022-11-12T01:38:51;28.02;;;10.95;;
13252;SDS011;6693;54.370;10.132;2022-11-12T01:39:52;22.35;;;8.85;;
13252;SDS011;6693;54.370;10.132;2022-11-12T01:40:55;26.48;;;10.15;;
13252;SDS011;6693;54.370;10.132;2022-11-12T01:41:56;27.25;;;10.52;;
13252;SDS011;6693;54.370;10.132;2022-11-12T01:42:59;24.25;;;10.00;;
13252;SDS011;6693;54.370;10.132;2022-11-12T01:44:10;22.92;;;10.23;;
13252;SDS011;6693;54.370;10.132;2022-11-12T01:45:15;23.23;;;10.00;;
13252;SDS011;6693;54.370;10.132;2022-11-12T01:46:16;24.45;;;10.77;;
13252;SDS011;6693;54.370;10.132;2022-11-12T01:47:21;24.58;;;10.13;;
13252;SDS011;6693;54.370;10.132;2022-11-12T01:52:13;23.17;;;10.05;;
13252;SDS011;6693;54.370;10.132;2022-11-12T01:53:18;23.88;;;10.57;;
13252;SDS011;6693;54.370;10.132;2022-11-12T01:54:20;26.00;;;10.35;;
13252;SDS011;6693;54.370;10.132;2022-11-12T01:55:25;21.98;;;10.07;;
13252;SDS011;6693;54.370;10.132;2022-11-12T01:56:27;22.52;;;10.20;;
13252;SDS011;6693;54.370;10.132;2022-11-12T01:57:32;27.00;;;10.43;;
13252;SDS011;6693;54.370;10.132;2022-11-12T01:58:36;24.63;;;10.10;;
13252;SDS011;6693;54.370;10.132;2022-11-12T01:59:40;25.48;;;10.27;;
13252;SDS011;6693;54.370;10.132;2022-11-12T02:00:43;24.83;;;11.75;;
13252;SDS011;6693;54.370;10.132;2022-11-12T02:01:47;26.83;;;9.43;;
13252;SDS011;6693;54.370;10.132;2022-11-12T02:02:50;28.38;;;10.88;;
13252;SDS011;6693;54.370;10.132;2022-11-12T02:03:54;23.40;;;10.02;;
13252;SDS011;6693;54.370;10.132;2022-11-12T02:04:55;27.23;;;11.15;;
13252;SDS011;6693;54.370;10.132;2022-11-12T02:06:01;23.45;;;11.23;;
13252;SDS011;6693;54.370;10.132;2022-11-12T02:07:04;26.08;;;10.63;;
13252;SDS011;6693;54.370;10.132;2022-11-12T02:08:11;25.67;;;11.38;;
13252;SDS011;6693;54.370;10.132;2022-11-12T02:09:12;27.60;;;11.82;;
13252;SDS011;6693;54.370;10.132;2022-11-12T02:11:17;25.77;;;12.02;;
13252;SDS011;6693;54.370;10.132;2022-11-12T02:12:21;25.05;;;10.57;;
13252;SDS011;6693;54.370;10.132;2022-11-12T02:13:37;27.40;;;11.85;;
13252;SDS011;6693;54.370;10.132;2022-11-12T02:14:52;26.08;;;11.65;;
13252;SDS011;6693;54.370;10.132;2022-11-12T02:15:56;25.98;;;11.18;;
13252;SDS011;6693;54.370;10.132;2022-11-12T02:16:57;25.25;;;11.38;;
13252;SDS011;6693;54.370;10.132;2022-11-12T02:18:01;29.88;;;12.50;;
13252;SDS011;6693;54.370;10.132;2022-11-12T02:19:02;26.38;;;10.60;;
13252;SDS011;6693;54.370;10.132;2022-11-12T02:20:08;30.48;;;12.93;;
13252;SDS011;6693;54.370;10.132;2022-11-12T02:21:09;27.42;;;10.80;;
13252;SDS011;6693;54.370;10.132;2022-11-12T02:22:15;26.95;;;10.70;;
13252;SDS011;6693;54.370;10.132;2022-11-12T02:23:15;28.33;;;11.90;;
13252;SDS011;6693;54.370;10.132;2022-11-12T02:24:32;25.83;;;10.95;;
13252;SDS011;6693;54.370;10.132;2022-11-12T02:25:34;29.65;;;11.48;;
13252;SDS011;6693;54.370;10.132;2022-11-12T02:26:38;27.25;;;12.07;;
13252;SDS011;6693;54.370;10.132;2022-11-12T02:27:40;29.25;;;11.90;;
13252;SDS011;6693;54.370;10.132;2022-11-12T02:28:43;27.10;;;11.93;;
13252;SDS011;6693;54.370;10.132;2022-11-12T02:29:44;28.98;;;11.68;;
13252;SDS011;6693;54.370;10.132;2022-11-12T02:30:48;31.23;;;12.45;;
13252;SDS011;6693;54.370;10.132;2022-11-12T02:31:48;27.92;;;12.13;;
13252;SDS011;6693;54.370;10.132;2022-11-12T02:32:51;29.98;;;12.20;;
13252;SDS011;6693;54.370;10.132;2022-11-12T02:33:52;25.25;;;9.80;;
13252;SDS011;6693;54.370;10.132;2022-11-12T02:34:55;28.20;;;13.18;;
13252;SDS011;6693;54.370;10.132;2022-11-12T02:35:56;25.85;;;11.23;;
13252;SDS011;6693;54.370;10.132;2022-11-12T02:36:59;31.85;;;12.40;;
13252;SDS011;6693;54.370;10.132;2022-11-12T02:38:02;26.52;;;10.35;;
13252;SDS011;6693;54.370;10.132;2022-11-12T02:39:06;27.63;;;11.73;;
13252;SDS011;6693;54.370;10.132;2022-11-12T02:40:07;30.40;;;12.68;;
13252;SDS011;6693;54.370;10.132;2022-11-12T02:41:11;27.73;;;10.27;;
13252;SDS011;6693;54.370;10.132;2022-11-12T02:42:12;32.13;;;12.52;;
13252;SDS011;6693;54.370;10.132;2022-11-12T02:43:15;25.50;;;9.60;;
13252;SDS011;6693;54.370;10.132;2022-11-12T02:44:15;29.02;;;11.75;;
13252;SDS011;6693;54.370;10.132;2022-11-12T02:45:19;31.98;;;11.60;;
13252;SDS011;6693;54.370;10.132;2022-11-12T02:46:20;30.58;;;11.90;;
13252;SDS011;6693;54.370;10.132;2022-11-12T02:47:23;29.20;;;12.57;;
13252;SDS011;6693;54.370;10.132;2022-11-12T02:48:24;28.35;;;11.00;;
13252;SDS011;6693;54.370;10.132;2022-11-12T02:49:27;29.80;;;12.45;;
13252;SDS011;6693;54.370;10.132;2022-11-12T02:50:30;29.23;;;12.52;;
13252;SDS011;6693;54.370;10.132;2022-11-12T02:51:30;32.05;;;13.25;;
13252;SDS011;6693;54.370;10.132;2022-11-12T02:52:34;35.65;;;13.27;;
13252;SDS011;6693;54.370;10.132;2022-11-12T02:53:37;32.55;;;12.90;;
13252;SDS011;6693;54.370;10.132;2022-11-12T02:54:40;30.00;;;12.07;;
13252;SDS011;6693;54.370;10.132;2022-11-12T02:55:41;26.35;;;10.80;;
13252;SDS011;6693;54.370;10.132;2022-11-12T02:56:44;35.05;;;13.40;;
13252;SDS011;6693;54.370;10.132;2022-11-12T02:57:48;29.38;;;11.77;;
13252;SDS011;6693;54.370;10.132;2022-11-12T02:58:48;30.52;;;13.02;;
13252;SDS011;6693;54.370;10.132;2022-11-12T02:59:51;27.90;;;11.38;;
13252;SDS011;6693;54.370;10.132;2022-11-12T03:00:52;34.10;;;13.57;;
13252;SDS011;6693;54.370;10.132;2022-11-12T03:01:57;32.05;;;12.98;;
13252;SDS011;6693;54.370;10.132;2022-11-12T03:02:57;32.45;;;12.07;;
13252;SDS011;6693;54.370;10.132;2022-11-12T03:04:01;29.90;;;11.82;;
13252;SDS011;6693;54.370;10.132;2022-11-12T03:05:05;35.03;;;12.93;;
13252;SDS011;6693;54.370;10.132;2022-11-12T03:06:06;34.28;;;13.60;;
13252;SDS011;6693;54.370;10.132;2022-11-12T03:07:09;30.48;;;12.65;;
13252;SDS011;6693;54.370;10.132;2022-11-12T03:08:10;30.63;;;12.80;;
13252;SDS011;6693;54.370;10.132;2022-11-12T03:09:16;33.15;;;11.95;;
13252;SDS011;6693;54.370;10.132;2022-11-12T03:10:17;30.35;;;12.13;;
13252;SDS011;6693;54.370;10.132;2022-11-12T03:11:20;33.45;;;13.88;;
13252;SDS011;6693;54.370;10.132;2022-11-12T03:12:20;32.17;;;12.57;;
13252;SDS011;6693;54.370;10.132;2022-11-12T03:13:24;31.67;;;12.75;;
13252;SDS011;6693;54.370;10.132;2022-11-12T03:14:24;30.50;;;11.57;;
13252;SDS011;6693;54.370;10.132;2022-11-12T03:15:28;30.10;;;12.93;;
13252;SDS011;6693;54.370;10.132;2022-11-12T03:16:29;30.85;;;12.77;;
13252;SDS011;6693;54.370;10.132;2022-11-12T03:17:32;34.10;;;13.77;;
13252;SDS011;6693;54.370;10.132;2022-11-12T03:18:33;32.28;;;12.90;;
13252;SDS011;6693;54.370;10.132;2022-11-12T03:19:36;33.20;;;13.15;;
13252;SDS011;6693;54.370;10.132;2022-11-12T03:20:37;31.17;;;13.63;;
13252;SDS011;6693;54.370;10.132;2022-11-12T03:21:40;29.48;;;11.27;;
13252;SDS011;6693;54.370;10.132;2022-11-12T03:22:41;32.45;;;13.30;;
13252;SDS011;6693;54.370;10.132;2022-11-12T03:23:44;33.97;;;12.90;;
13252;SDS011;6693;54.370;10.132;2022-11-12T03:24:47;32.80;;;13.63;;
13252;SDS011;6693;54.370;10.132;2022-11-12T03:25:50;32.08;;;13.95;;
13252;SDS011;6693;54.370;10.132;2022-11-12T03:26:51;31.92;;;13.82;;
13252;SDS011;6693;54.370;10.132;2022-11-12T03:27:58;31.10;;;12.98;;
13252;SDS011;6693;54.370;10.132;2022-11-12T03:28:58;31.08;;;13.88;;
13252;SDS011;6693;54.370;10.132;2022-11-12T03:30:02;34.92;;;14.77;;
13252;SDS011;6693;54.370;10.132;2022-11-12T03:31:03;33.92;;;13.45;;
13252;SDS011;6693;54.370;10.132;2022-11-12T03:32:06;34.72;;;15.60;;
13252;SDS011;6693;54.370;10.132;2022-11-12T03:33:08;34.75;;;13.55;;
13252;SDS011;6693;54.370;10.132;2022-11-12T03:34:12;35.30;;;14.40;;
13252;SDS011;6693;54.370;10.132;2022-11-12T03:35:13;34.42;;;14.75;;
13252;SDS011;6693;54.370;10.132;2022-11-12T03:36:16;33.78;;;14.30;;
13252;SDS011;6693;54.370;10.132;2022-11-12T03:37:17;33.28;;;14.50;;
13252;SDS011;6693;54.370;10.132;2022-11-12T03:38:20;35.45;;;12.48;;
13252;SDS011;6693;54.370;10.132;2022-11-12T03:39:20;31.98;;;12.77;;
13252;SDS011;6693;54.370;10.132;2022-11-12T03:40:26;34.05;;;12.77;;
13252;SDS011;6693;54.370;10.132;2022-11-12T03:41:27;32.28;;;12.30;;
13252;SDS011;6693;54.370;10.132;2022-11-12T03:42:30;31.17;;;12.57;;
13252;SDS011;6693;54.370;10.132;2022-11-12T03:43:31;35.20;;;15.52;;
13252;SDS011;6693;54.370;10.132;2022-11-12T03:44:34;33.80;;;13.95;;
13252;SDS011;6693;54.370;10.132;2022-11-12T03:45:35;34.08;;;13.73;;
13252;SDS011;6693;54.370;10.132;2022-11-12T03:46:38;36.33;;;13.82;;
13252;SDS011;6693;54.370;10.132;2022-11-12T03:47:40;33.40;;;15.63;;
13252;SDS011;6693;54.370;10.132;2022-11-12T03:48:44;35.65;;;14.60;;
13252;SDS011;6693;54.370;10.132;2022-11-12T03:49:45;36.05;;;15.30;;
13252;SDS011;6693;54.370;10.132;2022-11-12T03:50:48;35.13;;;14.07;;
13252;SDS011;6693;54.370;10.132;2022-11-12T03:51:49;34.50;;;14.23;;
13252;SDS011;6693;54.370;10.132;2022-11-12T03:52:53;33.47;;;13.60;;
13252;SDS011;6693;54.370;10.132;2022-11-12T03:53:55;31.98;;;13.25;;
13252;SDS011;6693;54.370;10.132;2022-11-12T03:54:58;35.65;;;14.57;;
13252;SDS011;6693;54.370;10.132;2022-11-12T03:56:02;36.30;;;14.27;;
13252;SDS011;6693;54.370;10.132;2022-11-12T03:57:05;33.88;;;13.80;;
13252;SDS011;6693;54.370;10.132;2022-11-12T03:58:05;32.30;;;13.90;;
13252;SDS011;6693;54.370;10.132;2022-11-12T03:59:09;33.72;;;13.65;;
13252;SDS011;6693;54.370;10.132;2022-11-12T04:00:10;33.55;;;13.00;;
13252;SDS011;6693;54.370;10.132;2022-11-12T04:01:14;36.05;;;14.18;;
13252;SDS011;6693;54.370;10.132;2022-11-12T04:02:15;36.83;;;14.77;;
13252;SDS011;6693;54.370;10.132;2022-11-12T04:03:18;33.10;;;13.20;;
13252;SDS011;6693;54.370;10.132;2022-11-12T04:04:19;36.88;;;15.10;;
13252;SDS011;6693;54.370;10.132;2022-11-12T04:05:22;32.30;;;13.23;;
13252;SDS011;6693;54.370;10.132;2022-11-12T04:06:38;33.13;;;13.60;;
13252;SDS011;6693;54.370;10.132;2022-11-12T04:07:57;33.22;;;13.50;;
13252;SDS011;6693;54.370;10.132;2022-11-12T04:09:14;32.67;;;12.18;;
13252;SDS011;6693;54.370;10.132;2022-11-12T04:10:14;29.23;;;12.10;;
13252;SDS011;6693;54.370;10.132;2022-11-12T04:11:20;36.50;;;15.18;;
13252;SDS011;6693;54.370;10.132;2022-11-12T04:12:21;34.13;;;12.70;;
13252;SDS011;6693;54.370;10.132;2022-11-12T04:13:37;33.10;;;13.85;;
13252;SDS011;6693;54.370;10.132;2022-11-12T04:14:41;29.75;;;11.52;;
13252;SDS011;6693;54.370;10.132;2022-11-12T04:15:41;34.22;;;13.13;;
13252;SDS011;6693;54.370;10.132;2022-11-12T04:16:42;34.40;;;13.88;;
13252;SDS011;6693;54.370;10.132;2022-11-12T04:17:58;35.03;;;13.90;;
13252;SDS011;6693;54.370;10.132;2022-11-12T04:19:13;32.38;;;12.63;;
13252;SDS011;6693;54.370;10.132;2022-11-12T04:20:29;32.92;;;12.77;;
13252;SDS011;6693;54.370;10.132;2022-11-12T04:21:45;34.05;;;12.77;;
13252;SDS011;6693;54.370;10.132;2022-11-12T04:22:53;33.35;;;13.13;;
13252;SDS011;6693;54.370;10.132;2022-11-12T04:23:54;34.35;;;13.18;;
13252;SDS011;6693;54.370;10.132;2022-11-12T04:24:57;33.47;;;13.55;;
13252;SDS011;6693;54.370;10.132;2022-11-12T04:26:13;34.67;;;14.18;;
13252;SDS011;6693;54.370;10.132;2022-11-12T04:27:25;36.50;;;13.70;;
13252;SDS011;6693;54.370;10.132;2022-11-12T04:28:29;36.20;;;13.30;;
13252;SDS011;6693;54.370;10.132;2022-11-12T04:29:30;35.13;;;14.52;;
13252;SDS011;6693;54.370;10.132;2022-11-12T04:30:46;35.53;;;13.95;;
13252;SDS011;6693;54.370;10.132;2022-11-12T04:31:47;33.15;;;12.82;;
13252;SDS011;6693;54.370;10.132;2022-11-12T04:32:51;33.78;;;12.55;;
13252;SDS011;6693;54.370;10.132;2022-11-12T04:33:56;33.63;;;14.02;;
13252;SDS011;6693;54.370;10.132;2022-11-12T04:35:17;37.75;;;14.57;;
13252;SDS011;6693;54.370;10.132;2022-11-12T04:36:20;35.22;;;12.65;;
13252;SDS011;6693;54.370;10.132;2022-11-12T04:37:21;35.15;;;14.18;;
13252;SDS011;6693;54.370;10.132;2022-11-12T04:38:26;35.45;;;14.88;;
13252;SDS011;6693;54.370;10.132;2022-11-12T04:39:26;32.42;;;12.45;;
13252;SDS011;6693;54.370;10.132;2022-11-12T04:40:29;33.85;;;13.90;;
13252;SDS011;6693;54.370;10.132;2022-11-12T04:41:45;36.67;;;12.95;;
13252;SDS011;6693;54.370;10.132;2022-11-12T04:43:04;38.28;;;14.77;;
13252;SDS011;6693;54.370;10.132;2022-11-12T04:44:20;32.53;;;13.70;;
13252;SDS011;6693;54.370;10.132;2022-11-12T04:45:36;31.95;;;12.48;;
13252;SDS011;6693;54.370;10.132;2022-11-12T04:46:40;34.83;;;13.77;;
13252;SDS011;6693;54.370;10.132;2022-11-12T04:47:40;33.90;;;13.18;;
13252;SDS011;6693;54.370;10.132;2022-11-12T04:48:44;36.50;;;14.15;;
13252;SDS011;6693;54.370;10.132;2022-11-12T04:49:44;36.70;;;14.55;;
13252;SDS011;6693;54.370;10.132;2022-11-12T04:50:45;39.20;;;15.48;;
13252;SDS011;6693;54.370;10.132;2022-11-12T04:51:50;37.55;;;14.55;;
13252;SDS011;6693;54.370;10.132;2022-11-12T04:53:05;32.28;;;14.38;;
13252;SDS011;6693;54.370;10.132;2022-11-12T04:54:08;32.13;;;11.80;;
13252;SDS011;6693;54.370;10.132;2022-11-12T04:55:09;32.13;;;13.82;;
13252;SDS011;6693;54.370;10.132;2022-11-12T04:56:13;35.00;;;13.93;;
13252;SDS011;6693;54.370;10.132;2022-11-12T04:57:14;37.67;;;15.05;;
13252;SDS011;6693;54.370;10.132;2022-11-12T04:58:20;37.13;;;14.40;;
13252;SDS011;6693;54.370;10.132;2022-11-12T04:59:21;40.22;;;14.60;;
13252;SDS011;6693;54.370;10.132;2022-11-12T05:00:24;36.88;;;14.50;;
13252;SDS011;6693;54.370;10.132;2022-11-12T05:01:27;35.55;;;13.13;;
13252;SDS011;6693;54.370;10.132;2022-11-12T05:02:28;32.80;;;15.15;;
13252;SDS011;6693;54.370;10.132;2022-11-12T05:03:31;33.78;;;14.43;;
13252;SDS011;6693;54.370;10.132;2022-11-12T05:04:32;37.25;;;15.05;;
13252;SDS011;6693;54.370;10.132;2022-11-12T05:05:35;35.92;;;15.27;;
13252;SDS011;6693;54.370;10.132;2022-11-12T05:06:36;35.90;;;14.95;;
13252;SDS011;6693;54.370;10.132;2022-11-12T05:07:54;35.75;;;14.13;;
13252;SDS011;6693;54.370;10.132;2022-11-12T05:08:55;35.33;;;13.57;;
13252;SDS011;6693;54.370;10.132;2022-11-12T05:09:58;36.15;;;14.48;;
13252;SDS011;6693;54.370;10.132;2022-11-12T05:10:59;33.97;;;13.68;;
13252;SDS011;6693;54.370;10.132;2022-11-12T05:12:02;35.45;;;14.85;;
13252;SDS011;6693;54.370;10.132;2022-11-12T05:13:03;34.95;;;13.18;;
13252;SDS011;6693;54.370;10.132;2022-11-12T05:14:08;36.13;;;14.05;;
13252;SDS011;6693;54.370;10.132;2022-11-12T05:15:09;33.47;;;13.43;;
13252;SDS011;6693;54.370;10.132;2022-11-12T05:16:13;32.00;;;13.50;;
13252;SDS011;6693;54.370;10.132;2022-11-12T05:17:14;31.65;;;13.27;;
13252;SDS011;6693;54.370;10.132;2022-11-12T05:18:17;32.28;;;13.40;;
13252;SDS011;6693;54.370;10.132;2022-11-12T05:19:17;35.72;;;14.38;;
13252;SDS011;6693;54.370;10.132;2022-11-12T05:20:21;34.20;;;13.15;;
13252;SDS011;6693;54.370;10.132;2022-11-12T05:21:24;33.40;;;14.00;;
13252;SDS011;6693;54.370;10.132;2022-11-12T05:22:40;31.98;;;11.95;;
13252;SDS011;6693;54.370;10.132;2022-11-12T05:23:40;33.00;;;13.38;;
13252;SDS011;6693;54.370;10.132;2022-11-12T05:24:43;37.38;;;13.75;;
13252;SDS011;6693;54.370;10.132;2022-11-12T05:25:44;35.17;;;14.88;;
13252;SDS011;6693;54.370;10.132;2022-11-12T05:26:47;36.83;;;13.20;;
13252;SDS011;6693;54.370;10.132;2022-11-12T05:27:48;32.13;;;12.43;;
13252;SDS011;6693;54.370;10.132;2022-11-12T05:28:51;34.55;;;13.88;;
13252;SDS011;6693;54.370;10.132;2022-11-12T05:29:54;32.25;;;14.85;;
13252;SDS011;6693;54.370;10.132;2022-11-12T05:30:58;33.85;;;13.88;;
13252;SDS011;6693;54.370;10.132;2022-11-12T05:31:58;35.60;;;13.32;;
13252;SDS011;6693;54.370;10.132;2022-11-12T05:33:01;36.58;;;15.07;;
13252;SDS011;6693;54.370;10.132;2022-11-12T05:34:02;48.83;;;34.08;;
13252;SDS011;6693;54.370;10.132;2022-11-12T05:35:06;44.90;;;27.13;;
13252;SDS011;6693;54.370;10.132;2022-11-12T05:36:07;38.55;;;15.00;;
13252;SDS011;6693;54.370;10.132;2022-11-12T05:37:11;32.83;;;13.77;;
13252;SDS011;6693;54.370;10.132;2022-11-12T05:38:12;33.58;;;14.32;;
13252;SDS011;6693;54.370;10.132;2022-11-12T05:39:15;30.60;;;12.75;;
13252;SDS011;6693;54.370;10.132;2022-11-12T05:40:16;32.67;;;12.43;;
13252;SDS011;6693;54.370;10.132;2022-11-12T05:41:19;30.63;;;13.65;;
13252;SDS011;6693;54.370;10.132;2022-11-12T05:42:20;27.92;;;11.55;;
13252;SDS011;6693;54.370;10.132;2022-11-12T05:43:23;31.42;;;12.68;;
13252;SDS011;6693;54.370;10.132;2022-11-12T05:44:24;30.88;;;12.10;;
13252;SDS011;6693;54.370;10.132;2022-11-12T05:45:29;32.65;;;13.70;;
13252;SDS011;6693;54.370;10.132;2022-11-12T05:46:30;31.15;;;12.57;;
13252;SDS011;6693;54.370;10.132;2022-11-12T05:47:33;27.48;;;12.35;;
13252;SDS011;6693;54.370;10.132;2022-11-12T05:48:36;32.65;;;13.55;;
13252;SDS011;6693;54.370;10.132;2022-11-12T05:49:37;32.63;;;14.13;;
13252;SDS011;6693;54.370;10.132;2022-11-12T05:50:40;31.67;;;13.52;;
13252;SDS011;6693;54.370;10.132;2022-11-12T05:51:41;33.30;;;11.82;;
13252;SDS011;6693;54.370;10.132;2022-11-12T05:52:44;32.72;;;12.60;;
13252;SDS011;6693;54.370;10.132;2022-11-12T05:53:45;30.58;;;12.48;;
13252;SDS011;6693;54.370;10.132;2022-11-12T05:54:48;28.92;;;10.85;;
13252;SDS011;6693;54.370;10.132;2022-11-12T05:55:51;33.22;;;14.85;;
13252;SDS011;6693;54.370;10.132;2022-11-12T05:56:52;33.75;;;14.00;;
13252;SDS011;6693;54.370;10.132;2022-11-12T05:57:55;28.42;;;12.30;;
13252;SDS011;6693;54.370;10.132;2022-11-12T05:58:56;31.95;;;11.98;;
13252;SDS011;6693;54.370;10.132;2022-11-12T05:59:59;30.60;;;12.82;;
13252;SDS011;6693;54.370;10.132;2022-11-12T06:01:02;30.90;;;13.52;;
13252;SDS011;6693;54.370;10.132;2022-11-12T06:02:06;32.78;;;13.70;;
13252;SDS011;6693;54.370;10.132;2022-11-12T06:03:06;29.23;;;11.70;;
13252;SDS011;6693;54.370;10.132;2022-11-12T06:04:10;31.35;;;13.35;;
13252;SDS011;6693;54.370;10.132;2022-11-12T06:05:11;35.22;;;13.77;;
13252;SDS011;6693;54.370;10.132;2022-11-12T06:06:14;32.63;;;12.88;;
13252;SDS011;6693;54.370;10.132;2022-11-12T06:07:15;29.30;;;10.73;;
13252;SDS011;6693;54.370;10.132;2022-11-12T06:08:18;29.23;;;10.77;;
13252;SDS011;6693;54.370;10.132;2022-11-12T06:09:19;30.63;;;12.18;;
13252;SDS011;6693;54.370;10.132;2022-11-12T06:10:22;33.53;;;14.27;;
13252;SDS011;6693;54.370;10.132;2022-11-12T06:11:23;31.38;;;12.57;;
13252;SDS011;6693;54.370;10.132;2022-11-12T06:12:26;28.20;;;11.50;;
13252;SDS011;6693;54.370;10.132;2022-11-12T06:13:26;30.38;;;11.30;;
13252;SDS011;6693;54.370;10.132;2022-11-12T06:14:30;32.70;;;12.05;;
13252;SDS011;6693;54.370;10.132;2022-11-12T06:15:30;28.95;;;13.82;;
13252;SDS011;6693;54.370;10.132;2022-11-12T06:16:36;31.15;;;13.23;;
13252;SDS011;6693;54.370;10.132;2022-11-12T06:17:39;27.17;;;10.48;;
13252;SDS011;6693;54.370;10.132;2022-11-12T06:18:41;32.08;;;13.70;;